Time;durP1;ratioP1;P1;durP2;ratioP2;P2;SDS_P1;SDS_P2;PMS_P1;PMS_P2;Temp;Humidity;BMP_temperature;BMP_pressure;BME280_temperature;BME280_humidity;BME280_pressure;Samples;Min_cycle;Max_cycle;Signal;HPM_P1;HPM_P2
2022/10/31 00:01:08;;;;;;;16.90;7.57;;;16.30;99.90;;;;;;5051442;28;20215;-76
2022/10/31 00:03:34;;;;;;;12.80;7.63;;;16.30;99.90;;;;;;5051769;28;20638;-77
2022/10/31 00:06:01;;;;;;;15.23;9.03;;;16.30;99.90;;;;;;5052193;28;20441;-77
2022/10/31 00:08:27;;;;;;;12.27;7.70;;;16.30;99.90;;;;;;5052206;28;20535;-77
2022/10/31 00:10:52;;;;;;;11.47;7.63;;;16.30;99.90;;;;;;5052247;28;20421;-77
2022/10/31 00:13:18;;;;;;;16.00;7.97;;;16.30;99.90;;;;;;5052384;28;20171;-78
2022/10/31 00:15:44;;;;;;;17.60;8.10;;;16.30;99.90;;;;;;5051996;28;20288;-81
2022/10/31 00:18:10;;;;;;;17.73;8.33;;;16.40;99.90;;;;;;5050848;28;20221;-81
2022/10/31 00:20:36;;;;;;;12.93;7.33;;;16.40;99.90;;;;;;5051429;28;20314;-81
2022/10/31 00:23:03;;;;;;;13.20;7.90;;;16.40;99.90;;;;;;5052600;28;20815;-81
2022/10/31 00:25:35;;;;;;;13.87;8.63;;;16.40;99.90;;;;;;5052411;28;20444;-81
2022/10/31 00:28:01;;;;;;;20.47;8.93;;;16.40;99.90;;;;;;5052784;28;20923;-81
2022/10/31 00:30:26;;;;;;;12.50;8.23;;;16.40;99.90;;;;;;5052351;28;20495;-81
2022/10/31 00:32:52;;;;;;;19.07;8.40;;;16.40;99.90;;;;;;5052381;28;20190;-81
2022/10/31 00:35:17;;;;;;;17.17;8.17;;;16.50;99.90;;;;;;5051913;28;20278;-89
2022/10/31 00:37:43;;;;;;;18.77;8.77;;;16.50;99.90;;;;;;5050634;28;20269;-81
2022/10/31 00:40:09;;;;;;;16.57;8.20;;;16.50;99.90;;;;;;5050688;28;20207;-81
2022/10/31 00:42:35;;;;;;;16.93;8.50;;;16.50;99.90;;;;;;5050874;28;20524;-81
2022/10/31 00:45:00;;;;;;;12.50;7.90;;;16.50;99.90;;;;;;5051677;28;20422;-81
2022/10/31 00:47:26;;;;;;;17.30;9.50;;;16.50;99.90;;;;;;5051220;28;20180;-81
2022/10/31 00:49:51;;;;;;;15.40;8.53;;;16.50;99.90;;;;;;5052494;28;20175;-81
2022/10/31 00:52:17;;;;;;;12.77;7.93;;;16.50;99.90;;;;;;5052540;28;20211;-80
2022/10/31 00:54:42;;;;;;;11.73;7.80;;;16.50;99.90;;;;;;5052413;28;20256;-81
2022/10/31 00:57:08;;;;;;;14.20;10.40;;;16.50;99.90;;;;;;5052690;28;20262;-84
2022/10/31 00:59:33;;;;;;;14.50;7.97;;;16.50;99.90;;;;;;5052364;28;20171;-82
2022/10/31 01:01:59;;;;;;;13.93;9.03;;;16.50;99.90;;;;;;5051355;28;20206;-83
2022/10/31 01:04:24;;;;;;;16.33;7.77;;;16.50;99.90;;;;;;5052013;28;20268;-80
2022/10/31 01:06:50;;;;;;;14.00;9.37;;;16.50;99.90;;;;;;5052261;28;20179;-81
2022/10/31 01:09:15;;;;;;;17.00;9.70;;;16.60;99.90;;;;;;5052295;28;20171;-81
2022/10/31 01:11:41;;;;;;;16.10;8.80;;;16.50;99.90;;;;;;5052159;28;20197;-82
2022/10/31 01:14:08;;;;;;;17.43;9.00;;;16.50;99.90;;;;;;5052231;28;20175;-82
2022/10/31 01:16:34;;;;;;;20.60;8.40;;;16.60;99.90;;;;;;5051916;28;20205;-82
2022/10/31 01:18:59;;;;;;;11.53;8.20;;;16.60;99.90;;;;;;5052119;28;20516;-81
2022/10/31 01:21:27;;;;;;;21.20;8.70;;;16.60;99.90;;;;;;5051746;28;20313;-84
2022/10/31 01:23:54;;;;;;;21.90;8.50;;;16.60;99.90;;;;;;5049478;28;20167;-82
2022/10/31 01:26:25;;;;;;;14.67;8.03;;;16.60;99.90;;;;;;5051196;28;20536;-80
2022/10/31 01:28:56;;;;;;;16.00;7.97;;;16.60;99.90;;;;;;5052718;28;20426;-81
2022/10/31 01:31:25;;;;;;;11.83;8.83;;;16.60;99.90;;;;;;5053781;28;20839;-81
2022/10/31 05:30:51;;;;;;;18.07;10.40;;;14.80;99.90;;;;;;5689621;23;20551;-78
2022/10/31 05:33:17;;;;;;;13.93;10.10;;;14.70;99.90;;;;;;4900732;29;20445;-88
2022/10/31 05:35:42;;;;;;;12.77;8.93;;;14.60;99.90;;;;;;4899504;29;20428;-80
2022/10/31 05:38:08;;;;;;;17.50;10.47;;;14.60;99.90;;;;;;4899905;29;20180;-78
2022/10/31 05:40:33;;;;;;;16.13;10.37;;;14.60;99.90;;;;;;4899397;29;20222;-77
2022/10/31 05:42:59;;;;;;;18.07;10.30;;;14.60;99.90;;;;;;4899518;29;20212;-77
2022/10/31 05:45:25;;;;;;;16.63;9.60;;;14.60;99.90;;;;;;4899723;29;20191;-78
2022/10/31 05:47:58;;;;;;;18.87;10.07;;;14.60;99.90;;;;;;4899728;29;20663;-81
2022/10/31 05:50:26;;;;;;;14.23;10.00;;;14.60;99.90;;;;;;4898578;29;20196;-82
2022/10/31 05:52:57;;;;;;;13.30;9.40;;;14.60;99.90;;;;;;4899569;29;20439;-79
2022/10/31 05:55:22;;;;;;;17.23;9.57;;;14.60;99.90;;;;;;4899655;29;20536;-78
2022/10/31 05:57:48;;;;;;;19.83;9.00;;;14.60;99.90;;;;;;4899780;29;20438;-80
2022/10/31 06:00:14;;;;;;;13.30;9.27;;;14.70;99.90;;;;;;4899881;29;20248;-79
2022/10/31 06:02:39;;;;;;;13.47;9.27;;;14.70;99.90;;;;;;4899756;29;20619;-79
2022/10/31 06:05:05;;;;;;;14.70;10.13;;;14.70;99.90;;;;;;4899849;29;20180;-80
2022/10/31 06:07:35;;;;;;;17.07;9.43;;;14.60;99.90;;;;;;4900015;29;20189;-81
2022/10/31 06:10:01;;;;;;;22.47;9.83;;;14.60;99.90;;;;;;4900050;29;20216;-83
2022/10/31 06:12:27;;;;;;;14.30;9.67;;;14.60;99.90;;;;;;4899934;29;20437;-81
2022/10/31 06:14:52;;;;;;;16.07;10.20;;;14.50;99.90;;;;;;4899270;29;20421;-77
2022/10/31 06:17:18;;;;;;;16.97;11.07;;;14.50;99.90;;;;;;4882799;29;20181;-78
2022/10/31 06:19:43;;;;;;;22.83;10.57;;;14.50;99.90;;;;;;4899499;29;20188;-79
2022/10/31 06:22:11;;;;;;;19.27;11.17;;;14.50;99.90;;;;;;4899063;29;20216;-79
2022/10/31 06:24:37;;;;;;;14.70;11.03;;;14.50;99.90;;;;;;4899216;29;20559;-78
2022/10/31 06:27:02;;;;;;;14.47;9.37;;;14.50;99.90;;;;;;4899236;29;20453;-79
2022/10/31 06:29:28;;;;;;;14.53;10.90;;;14.50;99.90;;;;;;4901358;29;20271;-79
2022/10/31 06:31:53;;;;;;;24.53;11.00;;;14.60;99.90;;;;;;4900055;29;20307;-79
2022/10/31 06:34:19;;;;;;;23.53;12.90;;;14.70;99.90;;;;;;4883653;29;20212;-79
2022/10/31 06:36:46;;;;;;;19.47;11.93;;;14.70;99.90;;;;;;4900067;29;20180;-81
2022/10/31 06:39:12;;;;;;;20.90;11.47;;;14.70;99.90;;;;;;4900361;29;20180;-81
2022/10/31 06:41:39;;;;;;;21.87;10.93;;;14.80;99.90;;;;;;4899857;29;20482;-81
2022/10/31 06:44:05;;;;;;;20.70;12.60;;;14.80;99.90;;;;;;4900191;29;20188;-81
2022/10/31 06:46:31;;;;;;;20.80;12.13;;;14.90;99.90;;;;;;4899847;29;20488;-81
2022/10/31 06:48:56;;;;;;;16.47;11.43;;;14.90;99.90;;;;;;4899176;29;20421;-81
2022/10/31 06:51:22;;;;;;;22.17;11.20;;;14.90;99.90;;;;;;4898761;29;20580;-81
2022/10/31 06:53:47;;;;;;;17.57;12.37;;;15.00;99.90;;;;;;4899781;29;20572;-81
2022/10/31 06:56:13;;;;;;;18.60;12.17;;;15.00;99.90;;;;;;4899805;29;20220;-81
2022/10/31 06:58:38;;;;;;;19.37;11.50;;;15.00;99.90;;;;;;4899507;29;20316;-80
2022/10/31 07:01:04;;;;;;;20.00;12.10;;;15.00;99.90;;;;;;4899319;29;20680;-78
2022/10/31 07:03:29;;;;;;;22.37;12.87;;;15.00;99.90;;;;;;4899308;29;20185;-78
2022/10/31 07:05:56;;;;;;;19.93;12.80;;;15.10;99.90;;;;;;4899247;29;20187;-79
2022/10/31 07:08:22;;;;;;;13.17;7.77;;;15.10;99.90;;;;;;4899343;29;20173;-79
2022/10/31 07:10:53;;;;;;;15.37;7.40;;;15.10;99.90;;;;;;4899133;29;20967;-79
2022/10/31 07:13:21;;;;;;;9.77;7.27;;;15.10;99.90;;;;;;4899318;29;20596;-80
2022/10/31 07:15:46;;;;;;;10.77;6.77;;;15.10;99.90;;;;;;4882610;29;21003;-81
2022/10/31 07:18:12;;;;;;;16.13;9.40;;;15.00;99.90;;;;;;4899017;29;20565;-80
2022/10/31 07:20:38;;;;;;;11.23;7.77;;;15.00;99.90;;;;;;4898953;29;20208;-81
2022/10/31 07:23:03;;;;;;;16.77;9.30;;;15.00;99.90;;;;;;4898763;29;20234;-81
2022/10/31 07:25:29;;;;;;;11.83;8.30;;;15.00;99.90;;;;;;4898249;29;20184;-81
2022/10/31 07:27:55;;;;;;;15.20;9.00;;;15.00;99.90;;;;;;4898856;29;20255;-80
2022/10/31 07:30:20;;;;;;;21.40;10.87;;;14.90;99.90;;;;;;4898390;29;20177;-79
2022/10/31 07:32:48;;;;;;;19.57;11.70;;;14.90;99.90;;;;;;4898015;29;20248;-80
2022/10/31 07:35:16;;;;;;;16.87;9.37;;;14.90;99.90;;;;;;4893148;29;20656;-78
2022/10/31 07:37:42;;;;;;;16.07;9.00;;;15.00;99.90;;;;;;4898597;29;20428;-81
2022/10/31 07:40:09;;;;;;;16.63;10.27;;;15.00;99.90;;;;;;4898575;29;20433;-81
2022/10/31 07:42:42;;;;;;;15.20;8.63;;;15.00;99.90;;;;;;4898633;29;20541;-80
2022/10/31 07:45:10;;;;;;;19.40;11.47;;;15.10;99.90;;;;;;4898673;29;20428;-80
2022/10/31 07:47:45;;;;;;;22.00;12.17;;;15.10;99.90;;;;;;4881525;29;20967;-81
2022/10/31 07:50:16;;;;;;;21.30;10.80;;;15.20;99.90;;;;;;4898518;29;20433;-81
2022/10/31 07:52:42;;;;;;;18.33;11.70;;;15.20;99.90;;;;;;4898353;29;20456;-80
2022/10/31 07:55:08;;;;;;;17.93;11.07;;;15.30;99.90;;;;;;4880944;29;20443;-81
2022/10/31 07:57:36;;;;;;;15.30;10.50;;;15.30;99.90;;;;;;4890496;29;20196;-80
2022/10/31 08:00:03;;;;;;;32.83;11.67;;;15.30;99.90;;;;;;4886866;29;20440;-78
2022/10/31 08:02:29;;;;;;;16.97;10.00;;;15.30;99.90;;;;;;4879620;29;20441;-78
2022/10/31 08:04:54;;;;;;;18.60;13.10;;;15.30;99.90;;;;;;4862864;29;20787;-78
2022/10/31 08:07:20;;;;;;;29.93;14.50;;;15.20;99.90;;;;;;4862811;29;20294;-79
2022/10/31 08:09:46;;;;;;;23.97;13.40;;;15.30;99.90;;;;;;4879543;29;20184;-80
2022/10/31 08:12:11;;;;;;;23.73;11.10;;;15.30;99.90;;;;;;4879498;29;20193;-79
2022/10/31 08:14:37;;;;;;;23.90;13.70;;;15.40;99.90;;;;;;4879544;29;20252;-81
2022/10/31 08:17:02;;;;;;;23.70;14.13;;;15.40;99.90;;;;;;4879372;29;20234;-81
2022/10/31 08:19:28;;;;;;;27.93;12.80;;;15.50;99.90;;;;;;4879393;29;20213;-82
2022/10/31 08:21:58;;;;;;;24.80;14.37;;;15.50;99.90;;;;;;4862647;29;20236;-81
2022/10/31 08:24:24;;;;;;;24.30;14.30;;;15.50;99.90;;;;;;4879279;29;20266;-82
2022/10/31 08:26:50;;;;;;;26.10;12.63;;;15.60;99.90;;;;;;4879363;29;20441;-78
2022/10/31 08:29:15;;;;;;;24.87;14.00;;;15.70;99.90;;;;;;4879370;29;20552;-78
2022/10/31 08:31:42;;;;;;;24.90;13.70;;;15.70;99.90;;;;;;4879108;29;20239;-80
2022/10/31 08:34:07;;;;;;;27.47;15.10;;;15.80;99.90;;;;;;4879462;29;20601;-78
2022/10/31 08:36:33;;;;;;;22.07;13.90;;;15.80;99.90;;;;;;4880085;29;20465;-78
2022/10/31 08:38:59;;;;;;;17.70;13.20;;;15.90;99.90;;;;;;4883027;29;20181;-77
2022/10/31 08:41:25;;;;;;;19.43;12.63;;;16.00;99.90;;;;;;4882988;29;20580;-78
2022/10/31 08:43:50;;;;;;;19.13;13.30;;;16.00;99.90;;;;;;4883031;29;20438;-78
2022/10/31 08:46:17;;;;;;;26.43;15.30;;;15.90;99.90;;;;;;4882929;29;20570;-77
2022/10/31 08:48:42;;;;;;;25.87;14.53;;;16.00;99.90;;;;;;4882891;29;20200;-78
2022/10/31 08:51:09;;;;;;;18.77;13.97;;;16.10;99.90;;;;;;4882914;29;20441;-79
2022/10/31 08:53:35;;;;;;;25.60;14.00;;;16.10;99.90;;;;;;4885187;29;20433;-81
2022/10/31 08:56:00;;;;;;;19.20;13.03;;;16.20;99.90;;;;;;4891752;29;20497;-84
2022/10/31 08:58:26;;;;;;;22.97;15.27;;;16.20;99.90;;;;;;4891162;29;20687;-83
2022/10/31 09:00:53;;;;;;;25.73;13.87;;;16.40;99.90;;;;;;4892825;29;20227;-84
2022/10/31 09:03:23;;;;;;;22.47;14.37;;;16.40;99.90;;;;;;4892053;29;20295;-89
2022/10/31 09:05:50;;;;;;;25.93;15.20;;;16.50;99.90;;;;;;4892119;29;20460;-87
2022/10/31 09:08:16;;;;;;;19.63;13.70;;;16.60;99.90;;;;;;4890477;29;20445;-89
2022/10/31 09:10:43;;;;;;;26.63;14.20;;;16.70;99.90;;;;;;4885809;29;20757;-90
2022/10/31 09:13:19;;;;;;;26.33;14.57;;;16.70;99.90;;;;;;4889624;29;20445;-85
2022/10/31 09:15:46;;;;;;;21.63;13.30;;;16.80;99.90;;;;;;4875228;29;20810;-85
2022/10/31 09:18:15;;;;;;;22.37;14.77;;;16.90;99.90;;;;;;4886729;29;20441;-81
2022/10/31 09:20:42;;;;;;;25.93;14.60;;;16.90;99.90;;;;;;4891487;29;20480;-80
2022/10/31 09:23:20;;;;;;;19.57;14.30;;;17.00;99.90;;;;;;4872047;29;20437;-80
2022/10/31 09:25:48;;;;;;;22.07;14.27;;;17.00;99.90;;;;;;4881296;29;20513;-80
2022/10/31 09:28:18;;;;;;;24.60;14.70;;;17.00;99.90;;;;;;4882744;29;20485;-82
2022/10/31 09:30:46;;;;;;;33.50;15.23;;;17.10;99.90;;;;;;4881137;29;20520;-78
2022/10/31 09:33:13;;;;;;;26.60;15.07;;;17.10;99.90;;;;;;4881362;29;20429;-79
2022/10/31 09:35:40;;;;;;;26.00;15.70;;;17.20;99.90;;;;;;4881210;29;20437;-79
2022/10/31 09:38:18;;;;;;;24.67;14.80;;;17.30;99.90;;;;;;4881168;29;20574;-79
2022/10/31 09:40:47;;;;;;;28.57;14.57;;;17.30;99.90;;;;;;4881058;29;20492;-78
2022/10/31 09:43:46;;;;;;;32.37;15.20;;;17.40;99.90;;;;;;4881132;29;20439;-78
2022/10/31 09:46:19;;;;;;;28.20;15.47;;;17.40;99.90;;;;;;4881200;29;20434;-78
2022/10/31 09:48:53;;;;;;;23.50;13.60;;;17.50;99.90;;;;;;4880318;29;20512;-79
2022/10/31 09:51:26;;;;;;;28.27;16.30;;;17.60;99.90;;;;;;4865851;29;20469;-78
2022/10/31 09:54:03;;;;;;;28.77;15.53;;;17.70;99.90;;;;;;4888848;29;20443;-79
2022/10/31 09:56:30;;;;;;;33.70;15.23;;;17.90;99.90;;;;;;4872185;29;20792;-79
2022/10/31 09:59:00;;;;;;;28.43;15.80;;;17.90;99.90;;;;;;4890230;29;20436;-78
2022/10/31 10:01:38;;;;;;;27.10;15.17;;;17.90;99.90;;;;;;4890453;29;20481;-79
2022/10/31 10:04:42;;;;;;;28.40;14.97;;;17.90;99.90;;;;;;4888636;29;20462;-80
2022/10/31 10:07:53;;;;;;;30.20;15.07;;;18.00;99.90;;;;;;4890879;29;20436;-81
2022/10/31 10:10:34;;;;;;;27.17;15.93;;;18.10;99.90;;;;;;4888528;29;20940;-80
2022/10/31 10:13:32;;;;;;;21.93;15.50;;;18.10;99.90;;;;;;4889537;29;20508;-83
2022/10/31 10:16:33;;;;;;;33.40;15.77;;;18.10;99.90;;;;;;4882354;29;20445;-83
2022/10/31 10:19:16;;;;;;;25.50;15.63;;;18.00;99.90;;;;;;4889375;29;20433;-80
2022/10/31 10:22:00;;;;;;;29.33;15.77;;;18.10;99.90;;;;;;4889409;29;20473;-82
2022/10/31 10:24:44;;;;;;;35.13;15.53;;;18.00;99.90;;;;;;4885406;29;20430;-80
2022/10/31 10:27:36;;;;;;;25.00;15.10;;;18.10;99.90;;;;;;4887734;29;20432;-82
2022/10/31 10:30:13;;;;;;;26.10;14.63;;;18.10;99.90;;;;;;4890213;29;20463;-81
2022/10/31 10:32:59;;;;;;;20.20;13.43;;;18.20;99.90;;;;;;4889522;29;20521;-81
2022/10/31 10:35:30;;;;;;;27.70;14.57;;;18.20;99.90;;;;;;4890156;29;20437;-80
2022/10/31 10:38:12;;;;;;;25.87;14.87;;;18.20;99.90;;;;;;4889076;29;20909;-82
2022/10/31 10:40:38;;;;;;;33.33;12.43;;;18.30;99.90;;;;;;4879586;29;20457;-80
2022/10/31 10:43:32;;;;;;;29.58;14.48;;;18.40;99.90;;;;;;4878938;29;20748;-78
2022/10/31 10:49:22;;;;;;;30.30;14.23;;;18.50;99.90;;;;;;4883657;29;20488;-80
2022/10/31 10:52:10;;;;;;;24.57;14.77;;;18.50;99.90;;;;;;4890466;29;20600;-92
2022/10/31 10:54:59;;;;;;;21.50;13.60;;;18.50;99.90;;;;;;4891281;29;20444;-90
2022/10/31 10:58:00;;;;;;;19.03;12.33;;;18.70;99.90;;;;;;4891223;29;20467;-88
2022/10/31 11:00:40;;;;;;;22.43;12.43;;;18.70;99.90;;;;;;4888388;29;20474;-88
2022/10/31 11:03:05;;;;;;;18.87;11.50;;;18.70;99.90;;;;;;4890925;29;20428;-89
2022/10/31 11:05:53;;;;;;;24.33;14.40;;;18.80;99.90;;;;;;4893187;29;20491;-88
2022/10/31 11:08:35;;;;;;;28.13;12.50;;;18.80;99.90;;;;;;4887744;29;20184;-73
2022/10/31 11:11:21;;;;;;;21.97;11.97;;;18.80;99.90;;;;;;4890497;29;21299;-73
2022/10/31 11:13:49;;;;;;;20.47;12.00;;;18.80;99.90;;;;;;4889933;29;20441;-73
2022/10/31 11:16:36;;;;;;;22.87;10.97;;;18.90;99.90;;;;;;4888475;29;20431;-73
2022/10/31 11:19:23;;;;;;;30.47;12.47;;;19.00;99.90;;;;;;4889579;29;20480;-74
2022/10/31 11:21:49;;;;;;;23.30;12.13;;;19.10;99.90;;;;;;4889944;29;20998;-73
2022/10/31 11:24:18;;;;;;;20.07;11.67;;;19.20;99.90;;;;;;4887478;29;20429;-74
2022/10/31 11:26:46;;;;;;;20.77;12.30;;;19.30;99.90;;;;;;4887512;29;20234;-74
2022/10/31 11:29:19;;;;;;;23.50;11.77;;;19.50;99.90;;;;;;4888201;29;20472;-72
2022/10/31 11:31:47;;;;;;;19.90;9.67;;;19.60;99.90;;;;;;4887352;29;20590;-73
2022/10/31 11:34:34;;;;;;;26.63;11.40;;;19.60;99.90;;;;;;4888347;29;20451;-73
2022/10/31 11:37:12;;;;;;;19.63;11.13;;;19.70;99.90;;;;;;4888270;29;20440;-73
2022/10/31 11:39:41;;;;;;;22.07;10.93;;;19.90;99.90;;;;;;4887639;29;20493;-73
2022/10/31 11:42:07;;;;;;;23.27;11.73;;;19.90;99.90;;;;;;4887741;29;20498;-74
2022/10/31 11:44:40;;;;;;;16.43;10.10;;;19.90;99.90;;;;;;4891208;29;20810;-74
2022/10/31 11:47:14;;;;;;;14.00;9.40;;;20.00;99.90;;;;;;4888584;29;20199;-74
2022/10/31 11:49:43;;;;;;;20.63;10.57;;;20.00;99.90;;;;;;4891019;29;20928;-74
2022/10/31 11:52:20;;;;;;;14.23;9.40;;;20.00;99.90;;;;;;4888488;29;20455;-73
2022/10/31 11:54:58;;;;;;;18.93;10.13;;;20.00;99.90;;;;;;4888982;29;20454;-73
2022/10/31 11:57:28;;;;;;;18.63;9.90;;;20.10;99.90;;;;;;4887797;29;20435;-73
2022/10/31 11:59:55;;;;;;;27.33;10.73;;;20.20;99.90;;;;;;4889002;29;20435;-73
2022/10/31 12:02:21;;;;;;;26.37;10.57;;;20.10;99.90;;;;;;4889377;29;20487;-73
2022/10/31 12:05:11;;;;;;;16.93;9.27;;;19.90;99.90;;;;;;4888789;29;20440;-73
2022/10/31 12:07:37;;;;;;;17.27;9.07;;;19.90;99.90;;;;;;4877848;29;20209;-75
2022/10/31 12:10:11;;;;;;;13.50;9.87;;;20.00;99.90;;;;;;4887035;29;20920;-73
2022/10/31 12:13:05;;;;;;;21.13;10.67;;;20.10;99.90;;;;;;4887289;29;20283;-75
2022/10/31 12:15:33;;;;;;;18.67;10.60;;;20.10;99.90;;;;;;4889640;29;20436;-76
2022/10/31 12:18:14;;;;;;;16.27;10.23;;;20.10;99.90;;;;;;4883966;29;20575;-74
2022/10/31 12:20:55;;;;;;;19.10;10.77;;;20.10;99.90;;;;;;4889068;29;20468;-74
2022/10/31 12:23:22;;;;;;;20.17;9.90;;;20.20;99.90;;;;;;4888192;29;20576;-72
2022/10/31 12:25:57;;;;;;;22.63;11.33;;;20.20;99.90;;;;;;4886438;29;21109;-71
2022/10/31 12:28:44;;;;;;;20.70;10.47;;;20.20;99.90;;;;;;4886523;29;20203;-73
2022/10/31 12:31:18;;;;;;;17.63;9.20;;;20.30;99.90;;;;;;4888057;29;20492;-73
2022/10/31 12:33:53;;;;;;;14.70;9.20;;;20.30;99.90;;;;;;4883532;29;20823;-74
2022/10/31 12:36:43;;;;;;;16.97;9.97;;;20.30;99.90;;;;;;4887420;29;20438;-74
2022/10/31 12:39:24;;;;;;;17.27;9.30;;;20.30;99.90;;;;;;4886378;29;20432;-73
2022/10/31 12:42:11;;;;;;;20.17;10.00;;;20.30;99.90;;;;;;4889422;29;21193;-74
2022/10/31 12:44:48;;;;;;;17.73;10.20;;;20.30;99.90;;;;;;4886878;29;20452;-73
2022/10/31 12:47:52;;;;;;;22.87;9.90;;;20.40;99.90;;;;;;4886865;29;20788;-74
2022/10/31 12:50:34;;;;;;;17.63;9.50;;;20.30;99.90;;;;;;4846111;29;20438;-73
2022/10/31 12:53:05;;;;;;;15.60;9.07;;;20.40;99.90;;;;;;4847162;29;20514;-72
2022/10/31 12:55:37;;;;;;;20.10;9.53;;;20.40;99.90;;;;;;4870807;29;20503;-72
2022/10/31 12:58:10;;;;;;;19.83;10.10;;;20.40;99.90;;;;;;4870074;29;20537;-73
2022/10/31 13:00:40;;;;;;;12.13;9.03;;;20.40;99.90;;;;;;4889137;29;20463;-72
2022/10/31 13:03:25;;;;;;;21.60;9.63;;;20.40;99.90;;;;;;4887349;29;20452;-73
2022/10/31 13:06:05;;;;;;;11.40;8.70;;;20.50;99.90;;;;;;4885420;29;20432;-73
2022/10/31 13:08:44;;;;;;;10.97;8.10;;;20.50;99.90;;;;;;4895878;29;20451;-74
2022/10/31 13:11:12;;;;;;;12.40;7.60;;;20.60;99.90;;;;;;4896398;29;20799;-72
2022/10/31 13:13:56;;;;;;;13.17;8.10;;;20.50;99.90;;;;;;4896252;29;20424;-73
2022/10/31 13:16:27;;;;;;;14.83;8.30;;;20.60;99.90;;;;;;4896777;29;20443;-73
2022/10/31 13:19:13;;;;;;;17.83;9.40;;;20.60;99.90;;;;;;4893598;29;20439;-73
2022/10/31 13:21:59;;;;;;;14.83;9.50;;;20.60;99.90;;;;;;4893191;29;20483;-74
2022/10/31 13:25:04;;;;;;;15.97;8.20;;;20.60;99.90;;;;;;4871863;29;20633;-74
2022/10/31 13:27:50;;;;;;;14.77;8.70;;;20.50;99.90;;;;;;4857248;29;20476;-73
2022/10/31 13:30:19;;;;;;;16.03;8.43;;;20.60;99.90;;;;;;4874330;29;20442;-73
2022/10/31 13:33:04;;;;;;;15.97;8.60;;;20.60;99.90;;;;;;4889816;29;20443;-73
2022/10/31 13:35:40;;;;;;;15.67;9.03;;;20.60;99.90;;;;;;4885920;29;20441;-73
2022/10/31 13:38:14;;;;;;;13.00;8.30;;;20.70;99.90;;;;;;4890998;29;20432;-73
2022/10/31 13:41:00;;;;;;;13.10;8.37;;;20.70;99.90;;;;;;4899699;29;20850;-73
2022/10/31 13:43:28;;;;;;;12.73;8.40;;;20.60;99.90;;;;;;4898859;29;21166;-73
2022/10/31 13:45:55;;;;;;;17.43;8.20;;;20.60;99.90;;;;;;4899441;29;20471;-73
2022/10/31 13:48:42;;;;;;;12.57;6.90;;;20.60;99.90;;;;;;4896186;29;20546;-72
2022/10/31 13:51:10;;;;;;;12.20;8.40;;;20.60;99.90;;;;;;4890665;29;20473;-73
2022/10/31 13:53:35;;;;;;;12.70;7.70;;;20.50;99.90;;;;;;4888830;29;20440;-73
2022/10/31 13:56:17;;;;;;;16.10;9.00;;;20.50;99.90;;;;;;4889711;29;20527;-73
2022/10/31 13:59:01;;;;;;;14.43;7.67;;;20.50;99.90;;;;;;4876126;29;20176;-73
2022/10/31 14:01:28;;;;;;;12.60;8.70;;;20.50;99.90;;;;;;4899288;29;20477;-79
2022/10/31 14:04:12;;;;;;;19.83;10.40;;;20.60;99.90;;;;;;4898597;29;20433;-74
2022/10/31 14:07:02;;;;;;;17.23;7.83;;;20.60;99.90;;;;;;4899139;29;20520;-73
2022/10/31 14:09:33;;;;;;;14.07;8.80;;;20.60;99.90;;;;;;4899344;29;20913;-73
2022/10/31 14:12:03;;;;;;;15.80;8.57;;;20.60;99.90;;;;;;4899203;29;20523;-73
2022/10/31 14:14:34;;;;;;;17.63;10.43;;;20.60;99.90;;;;;;4899250;29;20802;-72
2022/10/31 14:17:01;;;;;;;13.27;7.73;;;20.70;99.90;;;;;;4899336;29;20428;-73
2022/10/31 14:19:27;;;;;;;15.07;8.52;;;20.60;99.90;;;;;;4897899;29;20962;-73
2022/10/31 14:21:52;;;;;;;13.60;7.43;;;20.70;99.90;;;;;;4893294;29;20692;-72
2022/10/31 14:24:24;;;;;;;11.30;7.43;;;20.80;99.90;;;;;;4898214;29;20439;-72
2022/10/31 14:27:28;;;;;;;14.97;8.83;;;20.90;99.90;;;;;;4897800;29;20236;-72
2022/10/31 14:29:53;;;;;;;17.47;9.10;;;20.80;99.90;;;;;;4899050;29;20471;-72
2022/10/31 14:32:23;;;;;;;21.33;11.40;;;20.80;99.90;;;;;;4898575;29;20519;-72
2022/10/31 14:34:55;;;;;;;18.40;8.77;;;20.70;99.90;;;;;;4899140;29;20189;-72
2022/10/31 14:37:49;;;;;;;12.60;7.60;;;20.60;99.90;;;;;;4899728;29;20564;-73
2022/10/31 14:40:20;;;;;;;15.07;9.30;;;20.70;99.90;;;;;;4899682;29;20947;-73
2022/10/31 14:42:52;;;;;;;16.13;8.60;;;20.80;99.90;;;;;;4899643;29;20433;-72
2022/10/31 14:45:46;;;;;;;16.93;7.07;;;20.80;99.90;;;;;;4899650;29;20937;-73
2022/10/31 14:48:33;;;;;;;14.93;8.20;;;20.70;99.90;;;;;;4899650;29;20436;-73
2022/10/31 14:51:02;;;;;;;12.97;7.90;;;20.70;99.90;;;;;;4899518;29;20995;-73
2022/10/31 14:53:33;;;;;;;11.90;7.70;;;20.70;99.90;;;;;;4899472;29;20440;-73
2022/10/31 14:55:59;;;;;;;16.43;7.90;;;20.60;99.90;;;;;;4899499;29;20439;-73
2022/10/31 14:58:42;;;;;;;13.30;7.40;;;20.60;99.90;;;;;;4899349;29;20443;-74
2022/10/31 15:01:39;;;;;;;16.77;7.80;;;20.60;99.90;;;;;;4899242;29;20571;-73
2022/10/31 15:04:11;;;;;;;16.40;8.10;;;20.80;99.90;;;;;;4899353;29;20435;-74
2022/10/31 15:06:42;;;;;;;13.70;7.87;;;20.70;99.90;;;;;;4899209;29;20436;-74
2022/10/31 15:09:22;;;;;;;14.20;7.83;;;20.70;99.90;;;;;;4899203;29;20823;-74
2022/10/31 15:11:47;;;;;;;15.97;7.30;;;20.60;99.90;;;;;;4892467;29;20467;-73
2022/10/31 15:14:29;;;;;;;11.80;7.73;;;20.50;99.90;;;;;;4892718;29;20436;-74
2022/10/31 15:16:57;;;;;;;17.97;9.23;;;20.50;99.90;;;;;;4891383;29;20538;-78
2022/10/31 15:19:26;;;;;;;13.13;7.20;;;20.40;99.90;;;;;;4892279;29;20430;-89
2022/10/31 15:21:55;;;;;;;15.50;6.80;;;20.40;99.90;;;;;;4895738;29;20484;-74
2022/10/31 15:24:24;;;;;;;18.00;8.23;;;20.40;99.90;;;;;;4889664;29;20524;-82
2022/10/31 15:26:52;;;;;;;17.47;7.90;;;20.50;99.90;;;;;;4899452;29;20432;-80
2022/10/31 15:29:24;;;;;;;14.87;7.20;;;20.50;99.90;;;;;;4892106;29;20540;-82
2022/10/31 15:31:59;;;;;;;12.60;6.30;;;20.50;99.90;;;;;;4896484;29;20552;-72
2022/10/31 15:34:32;;;;;;;16.23;8.07;;;20.60;99.90;;;;;;4892463;29;20428;-73
2022/10/31 15:36:58;;;;;;;16.50;7.40;;;20.50;99.90;;;;;;4883214;29;20836;-72
2022/10/31 15:39:23;;;;;;;15.13;6.97;;;20.50;99.90;;;;;;4897420;29;20488;-73
2022/10/31 15:41:58;;;;;;;11.73;7.50;;;20.50;99.90;;;;;;4890889;29;20216;-73
2022/10/31 15:44:46;;;;;;;18.03;6.87;;;20.50;99.90;;;;;;4893745;29;20191;-73
2022/10/31 15:47:20;;;;;;;13.30;7.37;;;20.40;99.90;;;;;;4888666;29;21017;-73
2022/10/31 15:49:52;;;;;;;15.77;7.73;;;20.40;99.90;;;;;;4892025;29;20447;-72
2022/10/31 15:52:34;;;;;;;17.23;9.40;;;20.40;99.90;;;;;;4893654;29;20448;-73
2022/10/31 15:55:04;;;;;;;15.77;8.03;;;20.40;99.90;;;;;;4886049;29;20437;-72
2022/10/31 15:57:30;;;;;;;14.13;7.37;;;20.30;99.90;;;;;;4887720;29;20434;-72
2022/10/31 15:59:56;;;;;;;12.23;5.87;;;20.30;99.90;;;;;;4893102;29;20448;-72
2022/10/31 16:02:26;;;;;;;13.30;6.50;;;20.20;99.90;;;;;;4895647;29;20480;-72
2022/10/31 16:05:00;;;;;;;17.10;9.07;;;20.20;99.90;;;;;;4886335;29;20456;-73
2022/10/31 16:07:27;;;;;;;13.90;7.40;;;20.20;99.90;;;;;;4889805;29;20776;-67
2022/10/31 16:09:56;;;;;;;16.97;7.97;;;20.20;99.90;;;;;;4895308;29;20437;-72
2022/10/31 16:12:24;;;;;;;16.52;7.30;;;20.20;99.90;;;;;;4895796;29;20443;-72
2022/10/31 16:14:52;;;;;;;16.47;7.73;;;20.20;99.90;;;;;;4884962;29;20177;-73
2022/10/31 16:17:21;;;;;;;16.33;7.77;;;20.20;99.90;;;;;;4888956;29;20502;-73
2022/10/31 16:19:52;;;;;;;13.13;7.80;;;20.20;99.90;;;;;;4891368;29;20472;-74
2022/10/31 16:22:36;;;;;;;14.20;7.60;;;20.10;99.90;;;;;;4881861;29;20477;-74
2022/10/31 16:25:09;;;;;;;14.03;7.73;;;20.00;99.90;;;;;;4890718;29;20437;-73
2022/10/31 16:27:37;;;;;;;11.60;7.67;;;19.90;99.90;;;;;;4889631;29;21000;-73
2022/10/31 16:30:22;;;;;;;22.80;8.73;;;19.80;99.90;;;;;;4888630;29;20796;-80
2022/10/31 16:32:54;;;;;;;11.60;7.00;;;19.70;99.90;;;;;;4841194;29;20547;-81
2022/10/31 16:35:31;;;;;;;12.50;7.13;;;19.60;99.90;;;;;;4859894;29;20469;-81
2022/10/31 16:37:57;;;;;;;13.00;8.57;;;19.50;99.90;;;;;;4855419;29;20442;-82
2022/10/31 16:40:23;;;;;;;20.90;9.00;;;19.40;99.90;;;;;;4853884;29;20435;-82
2022/10/31 16:42:49;;;;;;;17.73;8.57;;;19.30;99.90;;;;;;4852043;29;20189;-82
2022/10/31 16:45:21;;;;;;;12.67;8.67;;;19.20;99.90;;;;;;4858240;29;20439;-81
2022/10/31 16:47:48;;;;;;;13.73;8.30;;;19.10;99.90;;;;;;4851367;29;20450;-82
2022/10/31 16:50:23;;;;;;;12.33;7.73;;;19.10;99.90;;;;;;4841486;29;20797;-83
2022/10/31 16:52:48;;;;;;;17.10;9.00;;;19.00;99.90;;;;;;4842834;29;20430;-83
2022/10/31 16:55:16;;;;;;;11.40;7.87;;;18.90;99.90;;;;;;4843742;29;20438;-83
2022/10/31 16:57:48;;;;;;;13.80;9.13;;;18.80;99.90;;;;;;4844827;29;20913;-83